Terminal Aerodrome Forecast
Issued by NWS

Home | Current Version | Previous Version | Text Only | Print | Product List | Glossary On
Versions: 1 2 3 4 5 6 7 8 9 10 11 12 13 14
312
FTUS42 KTAE 272320
TAFDHN
TAF
KDHN 272320Z 2800/2824 25004KT P6SM SCT100
     FM281000 24002KT 3SM BR SCT005 BKN100
     FM281400 26006KT P6SM -TSRA SCT040CB BKN100=

USA.gov is the U.S. government's official web portal to all federal, state and local government web resources and services.